sensor_id;sensor_type;location;lat;lon;timestamp;temperature;humidity
20481;DHT22;10399;50.754;3.366;2023-03-03T00:00:12;5.80;99.90
20481;DHT22;10399;50.754;3.366;2023-03-03T00:02:39;5.90;99.90
20481;DHT22;10399;50.754;3.366;2023-03-03T00:05:07;6.00;99.90
20481;DHT22;10399;50.754;3.366;2023-03-03T00:07:34;6.00;99.90
20481;DHT22;10399;50.754;3.366;2023-03-03T00:10:01;5.90;99.90
20481;DHT22;10399;50.754;3.366;2023-03-03T00:12:30;6.00;99.90
20481;DHT22;10399;50.754;3.366;2023-03-03T00:14:57;5.90;99.90
20481;DHT22;10399;50.754;3.366;2023-03-03T00:17:26;5.70;99.90
20481;DHT22;10399;50.754;3.366;2023-03-03T00:19:54;5.80;99.90
20481;DHT22;10399;50.754;3.366;2023-03-03T00:22:36;5.80;99.90
20481;DHT22;10399;50.754;3.366;2023-03-03T00:25:28;5.70;99.90
20481;DHT22;10399;50.754;3.366;2023-03-03T00:28:24;5.50;99.90
20481;DHT22;10399;50.754;3.366;2023-03-03T00:30:48;5.50;99.90
20481;DHT22;10399;50.754;3.366;2023-03-03T00:35:49;5.40;99.90
20481;DHT22;10399;50.754;3.366;2023-03-03T00:38:17;5.40;99.90
20481;DHT22;10399;50.754;3.366;2023-03-03T00:40:45;5.50;99.90
20481;DHT22;10399;50.754;3.366;2023-03-03T00:43:22;5.60;99.90
20481;DHT22;10399;50.754;3.366;2023-03-03T00:45:51;5.60;99.90
20481;DHT22;10399;50.754;3.366;2023-03-03T00:51:32;5.70;99.90
20481;DHT22;10399;50.754;3.366;2023-03-03T00:53:59;5.40;99.90
20481;DHT22;10399;50.754;3.366;2023-03-03T00:56:26;5.40;99.90
20481;DHT22;10399;50.754;3.366;2023-03-03T00:58:53;5.40;99.90
20481;DHT22;10399;50.754;3.366;2023-03-03T01:01:20;5.40;99.90
20481;DHT22;10399;50.754;3.366;2023-03-03T01:03:47;5.50;99.90
20481;DHT22;10399;50.754;3.366;2023-03-03T01:06:15;5.40;99.90
20481;DHT22;10399;50.754;3.366;2023-03-03T01:08:42;5.50;99.90
20481;DHT22;10399;50.754;3.366;2023-03-03T01:11:13;5.40;99.90
20481;DHT22;10399;50.754;3.366;2023-03-03T01:13:43;5.50;99.90
20481;DHT22;10399;50.754;3.366;2023-03-03T01:16:12;5.50;99.90
20481;DHT22;10399;50.754;3.366;2023-03-03T01:18:39;5.60;99.90
20481;DHT22;10399;50.754;3.366;2023-03-03T01:21:08;5.70;99.90
20481;DHT22;10399;50.754;3.366;2023-03-03T01:23:36;5.80;99.90
20481;DHT22;10399;50.754;3.366;2023-03-03T01:26:03;5.70;99.90
20481;DHT22;10399;50.754;3.366;2023-03-03T01:28:32;5.70;99.90
20481;DHT22;10399;50.754;3.366;2023-03-03T01:31:00;5.60;99.90
20481;DHT22;10399;50.754;3.366;2023-03-03T01:33:28;5.60;99.90
20481;DHT22;10399;50.754;3.366;2023-03-03T01:35:57;5.60;99.90
20481;DHT22;10399;50.754;3.366;2023-03-03T01:38:25;5.50;99.90
20481;DHT22;10399;50.754;3.366;2023-03-03T01:40:54;5.40;99.90
20481;DHT22;10399;50.754;3.366;2023-03-03T01:43:22;5.20;99.90
20481;DHT22;10399;50.754;3.366;2023-03-03T01:48:28;5.30;99.90
20481;DHT22;10399;50.754;3.366;2023-03-03T01:51:01;5.30;99.90
20481;DHT22;10399;50.754;3.366;2023-03-03T01:53:41;5.40;99.90
20481;DHT22;10399;50.754;3.366;2023-03-03T01:56:09;5.40;99.90
20481;DHT22;10399;50.754;3.366;2023-03-03T01:58:55;5.40;99.90
20481;DHT22;10399;50.754;3.366;2023-03-03T02:01:26;5.30;99.90
20481;DHT22;10399;50.754;3.366;2023-03-03T02:03:54;5.30;99.90
20481;DHT22;10399;50.754;3.366;2023-03-03T02:06:26;5.30;99.90
20481;DHT22;10399;50.754;3.366;2023-03-03T02:09:11;5.30;99.90
20481;DHT22;10399;50.754;3.366;2023-03-03T02:11:41;5.30;99.90
20481;DHT22;10399;50.754;3.366;2023-03-03T02:14:11;5.20;99.90
20481;DHT22;10399;50.754;3.366;2023-03-03T02:16:39;5.20;99.90
20481;DHT22;10399;50.754;3.366;2023-03-03T02:19:16;5.10;99.90
20481;DHT22;10399;50.754;3.366;2023-03-03T02:21:46;5.10;99.90
20481;DHT22;10399;50.754;3.366;2023-03-03T02:24:24;5.00;99.90
20481;DHT22;10399;50.754;3.366;2023-03-03T02:26:53;5.00;99.90
20481;DHT22;10399;50.754;3.366;2023-03-03T02:29:21;5.00;99.90
20481;DHT22;10399;50.754;3.366;2023-03-03T02:31:48;5.00;99.90
20481;DHT22;10399;50.754;3.366;2023-03-03T02:34:15;5.00;99.90
20481;DHT22;10399;50.754;3.366;2023-03-03T02:36:42;4.90;99.90
20481;DHT22;10399;50.754;3.366;2023-03-03T02:39:21;4.90;99.90
20481;DHT22;10399;50.754;3.366;2023-03-03T02:42:02;5.00;99.90
20481;DHT22;10399;50.754;3.366;2023-03-03T02:44:32;5.00;99.90
20481;DHT22;10399;50.754;3.366;2023-03-03T02:46:59;5.00;99.90
20481;DHT22;10399;50.754;3.366;2023-03-03T02:49:29;4.90;99.90
20481;DHT22;10399;50.754;3.366;2023-03-03T02:51:58;4.90;99.90
20481;DHT22;10399;50.754;3.366;2023-03-03T02:54:27;4.80;99.90
20481;DHT22;10399;50.754;3.366;2023-03-03T02:56:57;4.80;99.90
20481;DHT22;10399;50.754;3.366;2023-03-03T02:59:24;4.70;99.90
20481;DHT22;10399;50.754;3.366;2023-03-03T03:01:53;4.80;99.90
20481;DHT22;10399;50.754;3.366;2023-03-03T03:04:25;4.70;99.90
20481;DHT22;10399;50.754;3.366;2023-03-03T03:06:53;4.70;99.90
20481;DHT22;10399;50.754;3.366;2023-03-03T03:09:22;4.70;99.90
20481;DHT22;10399;50.754;3.366;2023-03-03T03:11:50;4.60;99.90
20481;DHT22;10399;50.754;3.366;2023-03-03T03:14:17;4.50;99.90
20481;DHT22;10399;50.754;3.366;2023-03-03T03:16:44;4.60;99.90
20481;DHT22;10399;50.754;3.366;2023-03-03T03:19:11;4.70;99.90
20481;DHT22;10399;50.754;3.366;2023-03-03T03:21:38;4.70;99.90
20481;DHT22;10399;50.754;3.366;2023-03-03T03:24:05;4.60;99.90
20481;DHT22;10399;50.754;3.366;2023-03-03T03:26:32;4.70;99.90
20481;DHT22;10399;50.754;3.366;2023-03-03T03:29:00;4.70;99.90
20481;DHT22;10399;50.754;3.366;2023-03-03T03:31:27;4.70;99.90
20481;DHT22;10399;50.754;3.366;2023-03-03T03:33:54;4.70;99.90
20481;DHT22;10399;50.754;3.366;2023-03-03T03:36:21;4.70;99.90
20481;DHT22;10399;50.754;3.366;2023-03-03T03:38:48;4.70;99.90
20481;DHT22;10399;50.754;3.366;2023-03-03T03:41:15;4.90;99.90
20481;DHT22;10399;50.754;3.366;2023-03-03T03:43:42;4.80;99.90
20481;DHT22;10399;50.754;3.366;2023-03-03T03:46:09;4.90;99.90
20481;DHT22;10399;50.754;3.366;2023-03-03T03:48:36;4.80;99.90
20481;DHT22;10399;50.754;3.366;2023-03-03T03:51:04;4.70;99.90
20481;DHT22;10399;50.754;3.366;2023-03-03T03:53:31;4.80;99.90
20481;DHT22;10399;50.754;3.366;2023-03-03T03:55:58;4.90;99.90
20481;DHT22;10399;50.754;3.366;2023-03-03T03:58:25;4.90;99.90
20481;DHT22;10399;50.754;3.366;2023-03-03T04:00:52;5.00;99.90
20481;DHT22;10399;50.754;3.366;2023-03-03T04:03:20;5.00;99.90
20481;DHT22;10399;50.754;3.366;2023-03-03T04:05:47;4.80;99.90
20481;DHT22;10399;50.754;3.366;2023-03-03T04:08:17;5.00;99.90
20481;DHT22;10399;50.754;3.366;2023-03-03T04:10:45;5.00;99.90
20481;DHT22;10399;50.754;3.366;2023-03-03T04:13:12;5.10;99.90
20481;DHT22;10399;50.754;3.366;2023-03-03T04:15:39;5.00;99.90
20481;DHT22;10399;50.754;3.366;2023-03-03T04:18:07;4.90;99.90
20481;DHT22;10399;50.754;3.366;2023-03-03T04:20:34;4.80;99.90
20481;DHT22;10399;50.754;3.366;2023-03-03T04:23:01;4.80;99.90
20481;DHT22;10399;50.754;3.366;2023-03-03T04:25:28;4.90;99.90
20481;DHT22;10399;50.754;3.366;2023-03-03T04:27:55;4.90;99.90
20481;DHT22;10399;50.754;3.366;2023-03-03T04:30:22;4.80;99.90
20481;DHT22;10399;50.754;3.366;2023-03-03T04:32:49;4.80;99.90
20481;DHT22;10399;50.754;3.366;2023-03-03T04:35:16;4.80;99.90
20481;DHT22;10399;50.754;3.366;2023-03-03T04:37:43;4.90;99.90
20481;DHT22;10399;50.754;3.366;2023-03-03T04:40:10;4.80;99.90
20481;DHT22;10399;50.754;3.366;2023-03-03T04:42:42;4.90;99.90
20481;DHT22;10399;50.754;3.366;2023-03-03T04:45:09;4.70;99.90
20481;DHT22;10399;50.754;3.366;2023-03-03T04:47:36;4.80;99.90
20481;DHT22;10399;50.754;3.366;2023-03-03T04:50:07;4.70;99.90
20481;DHT22;10399;50.754;3.366;2023-03-03T04:52:35;4.60;99.90
20481;DHT22;10399;50.754;3.366;2023-03-03T04:55:03;4.50;99.90
20481;DHT22;10399;50.754;3.366;2023-03-03T04:57:30;4.40;99.90
20481;DHT22;10399;50.754;3.366;2023-03-03T04:59:57;4.50;99.90
20481;DHT22;10399;50.754;3.366;2023-03-03T05:02:24;4.60;99.90
20481;DHT22;10399;50.754;3.366;2023-03-03T05:04:51;4.50;99.90
20481;DHT22;10399;50.754;3.366;2023-03-03T05:07:19;4.40;99.90
20481;DHT22;10399;50.754;3.366;2023-03-03T05:09:46;4.40;99.90
20481;DHT22;10399;50.754;3.366;2023-03-03T05:12:13;4.30;99.90
20481;DHT22;10399;50.754;3.366;2023-03-03T05:14:40;4.20;99.90
20481;DHT22;10399;50.754;3.366;2023-03-03T05:17:08;4.10;99.90
20481;DHT22;10399;50.754;3.366;2023-03-03T05:19:35;4.20;99.90
20481;DHT22;10399;50.754;3.366;2023-03-03T05:22:02;4.00;99.90
20481;DHT22;10399;50.754;3.366;2023-03-03T05:24:29;3.90;99.90
20481;DHT22;10399;50.754;3.366;2023-03-03T05:26:56;3.80;99.90
20481;DHT22;10399;50.754;3.366;2023-03-03T05:29:23;3.80;99.90
20481;DHT22;10399;50.754;3.366;2023-03-03T05:31:50;3.70;99.90
20481;DHT22;10399;50.754;3.366;2023-03-03T05:34:17;3.70;99.90
20481;DHT22;10399;50.754;3.366;2023-03-03T05:36:44;3.80;99.90
20481;DHT22;10399;50.754;3.366;2023-03-03T05:39:11;3.90;99.90
20481;DHT22;10399;50.754;3.366;2023-03-03T05:41:38;3.90;99.90
20481;DHT22;10399;50.754;3.366;2023-03-03T05:44:06;3.90;99.90
20481;DHT22;10399;50.754;3.366;2023-03-03T05:46:33;3.90;99.90
20481;DHT22;10399;50.754;3.366;2023-03-03T05:49:00;4.00;99.90
20481;DHT22;10399;50.754;3.366;2023-03-03T05:51:29;3.90;99.90
20481;DHT22;10399;50.754;3.366;2023-03-03T05:53:58;4.00;99.90
20481;DHT22;10399;50.754;3.366;2023-03-03T05:56:26;4.00;99.90
20481;DHT22;10399;50.754;3.366;2023-03-03T05:58:53;4.10;99.90
20481;DHT22;10399;50.754;3.366;2023-03-03T06:01:20;4.20;99.90
20481;DHT22;10399;50.754;3.366;2023-03-03T06:03:47;4.30;99.90
20481;DHT22;10399;50.754;3.366;2023-03-03T06:06:17;4.20;99.90
20481;DHT22;10399;50.754;3.366;2023-03-03T06:08:45;4.10;99.90
20481;DHT22;10399;50.754;3.366;2023-03-03T06:11:12;4.20;99.90
20481;DHT22;10399;50.754;3.366;2023-03-03T06:13:39;4.20;99.90
20481;DHT22;10399;50.754;3.366;2023-03-03T06:16:08;4.40;99.90
20481;DHT22;10399;50.754;3.366;2023-03-03T06:18:35;4.30;99.90
20481;DHT22;10399;50.754;3.366;2023-03-03T06:21:02;4.30;99.90
20481;DHT22;10399;50.754;3.366;2023-03-03T06:23:29;4.40;99.90
20481;DHT22;10399;50.754;3.366;2023-03-03T06:25:57;4.30;99.90
20481;DHT22;10399;50.754;3.366;2023-03-03T06:28:23;4.40;99.90
20481;DHT22;10399;50.754;3.366;2023-03-03T06:30:54;4.50;99.90
20481;DHT22;10399;50.754;3.366;2023-03-03T06:33:22;4.40;99.90
20481;DHT22;10399;50.754;3.366;2023-03-03T06:35:50;4.30;99.90
20481;DHT22;10399;50.754;3.366;2023-03-03T06:38:18;4.30;99.90
20481;DHT22;10399;50.754;3.366;2023-03-03T06:40:46;4.30;99.90
20481;DHT22;10399;50.754;3.366;2023-03-03T06:43:13;4.20;99.90
20481;DHT22;10399;50.754;3.366;2023-03-03T06:45:40;4.20;99.90
20481;DHT22;10399;50.754;3.366;2023-03-03T06:48:07;4.20;99.90
20481;DHT22;10399;50.754;3.366;2023-03-03T06:50:34;4.10;99.90
20481;DHT22;10399;50.754;3.366;2023-03-03T06:53:13;4.10;99.90
20481;DHT22;10399;50.754;3.366;2023-03-03T06:55:41;4.10;99.90
20481;DHT22;10399;50.754;3.366;2023-03-03T06:58:16;4.10;99.90
20481;DHT22;10399;50.754;3.366;2023-03-03T07:00:49;4.10;99.90
20481;DHT22;10399;50.754;3.366;2023-03-03T07:03:24;4.10;99.90
20481;DHT22;10399;50.754;3.366;2023-03-03T07:05:55;4.20;99.90
20481;DHT22;10399;50.754;3.366;2023-03-03T07:08:23;4.20;99.90
20481;DHT22;10399;50.754;3.366;2023-03-03T07:10:51;4.20;99.90
20481;DHT22;10399;50.754;3.366;2023-03-03T07:13:24;4.20;99.90
20481;DHT22;10399;50.754;3.366;2023-03-03T07:15:53;4.20;99.90
20481;DHT22;10399;50.754;3.366;2023-03-03T07:20:59;4.20;99.90
20481;DHT22;10399;50.754;3.366;2023-03-03T07:23:38;4.20;99.90
20481;DHT22;10399;50.754;3.366;2023-03-03T07:26:20;4.30;99.90
20481;DHT22;10399;50.754;3.366;2023-03-03T07:29:26;4.30;99.90
20481;DHT22;10399;50.754;3.366;2023-03-03T07:31:59;4.50;99.90
20481;DHT22;10399;50.754;3.366;2023-03-03T07:34:37;4.30;99.90
20481;DHT22;10399;50.754;3.366;2023-03-03T07:37:57;4.30;99.90
20481;DHT22;10399;50.754;3.366;2023-03-03T07:39:59;4.40;99.90
20481;DHT22;10399;50.754;3.366;2023-03-03T07:42:39;4.60;99.90
20481;DHT22;10399;50.754;3.366;2023-03-03T07:45:31;4.60;99.90
20481;DHT22;10399;50.754;3.366;2023-03-03T07:50:40;4.50;99.90
20481;DHT22;10399;50.754;3.366;2023-03-03T07:53:24;4.60;99.90
20481;DHT22;10399;50.754;3.366;2023-03-03T07:55:52;4.70;99.90
20481;DHT22;10399;50.754;3.366;2023-03-03T07:58:39;4.70;99.90
20481;DHT22;10399;50.754;3.366;2023-03-03T08:01:34;4.60;99.90
20481;DHT22;10399;50.754;3.366;2023-03-03T08:04:25;4.60;99.90
20481;DHT22;10399;50.754;3.366;2023-03-03T08:06:55;4.50;99.90
20481;DHT22;10399;50.754;3.366;2023-03-03T08:14:56;4.50;99.90
20481;DHT22;10399;50.754;3.366;2023-03-03T08:17:27;4.50;99.90
20481;DHT22;10399;50.754;3.366;2023-03-03T08:19:57;4.70;99.90
20481;DHT22;10399;50.754;3.366;2023-03-03T08:22:30;4.60;99.90
20481;DHT22;10399;50.754;3.366;2023-03-03T08:24:59;4.60;99.90
20481;DHT22;10399;50.754;3.366;2023-03-03T08:27:25;4.50;99.90
20481;DHT22;10399;50.754;3.366;2023-03-03T08:29:52;4.50;99.90
20481;DHT22;10399;50.754;3.366;2023-03-03T08:32:19;4.70;99.90
20481;DHT22;10399;50.754;3.366;2023-03-03T08:34:46;4.80;99.90
20481;DHT22;10399;50.754;3.366;2023-03-03T08:37:14;4.80;99.90
20481;DHT22;10399;50.754;3.366;2023-03-03T08:39:40;5.00;99.90
20481;DHT22;10399;50.754;3.366;2023-03-03T08:42:08;5.00;99.90
20481;DHT22;10399;50.754;3.366;2023-03-03T08:44:35;5.00;99.90
20481;DHT22;10399;50.754;3.366;2023-03-03T08:47:02;5.10;99.90
20481;DHT22;10399;50.754;3.366;2023-03-03T08:49:29;5.20;99.90
20481;DHT22;10399;50.754;3.366;2023-03-03T08:51:56;5.20;99.90
20481;DHT22;10399;50.754;3.366;2023-03-03T08:54:23;5.20;99.90
20481;DHT22;10399;50.754;3.366;2023-03-03T08:56:50;5.30;99.90
20481;DHT22;10399;50.754;3.366;2023-03-03T08:59:17;5.20;99.90
20481;DHT22;10399;50.754;3.366;2023-03-03T09:01:46;5.10;99.90
20481;DHT22;10399;50.754;3.366;2023-03-03T09:04:13;5.20;99.90
20481;DHT22;10399;50.754;3.366;2023-03-03T09:06:40;5.10;99.90
20481;DHT22;10399;50.754;3.366;2023-03-03T09:09:07;5.30;99.90
20481;DHT22;10399;50.754;3.366;2023-03-03T09:11:34;5.50;99.90
20481;DHT22;10399;50.754;3.366;2023-03-03T09:14:16;5.20;99.90
20481;DHT22;10399;50.754;3.366;2023-03-03T09:16:53;5.10;99.90
20481;DHT22;10399;50.754;3.366;2023-03-03T09:19:32;5.30;99.90
20481;DHT22;10399;50.754;3.366;2023-03-03T09:22:18;5.40;99.90
20481;DHT22;10399;50.754;3.366;2023-03-03T09:24:46;5.40;99.90
20481;DHT22;10399;50.754;3.366;2023-03-03T09:27:18;5.50;99.90
20481;DHT22;10399;50.754;3.366;2023-03-03T09:29:48;5.60;99.90
20481;DHT22;10399;50.754;3.366;2023-03-03T09:32:32;5.70;99.90
20481;DHT22;10399;50.754;3.366;2023-03-03T09:35:36;5.60;99.90
20481;DHT22;10399;50.754;3.366;2023-03-03T09:38:26;5.70;99.90
20481;DHT22;10399;50.754;3.366;2023-03-03T09:41:05;5.70;99.90
20481;DHT22;10399;50.754;3.366;2023-03-03T09:51:30;5.60;99.90
20481;DHT22;10399;50.754;3.366;2023-03-03T09:56:48;5.70;99.90
20481;DHT22;10399;50.754;3.366;2023-03-03T10:07:59;5.90;99.90
20481;DHT22;10399;50.754;3.366;2023-03-03T10:16:21;6.10;99.90
20481;DHT22;10399;50.754;3.366;2023-03-03T10:19:11;6.10;99.90
20481;DHT22;10399;50.754;3.366;2023-03-03T10:22:12;6.20;99.90
20481;DHT22;10399;50.754;3.366;2023-03-03T10:57:23;6.70;99.90
20481;DHT22;10399;50.754;3.366;2023-03-03T11:00:14;6.80;99.90
20481;DHT22;10399;50.754;3.366;2023-03-03T11:05:52;6.90;99.90
20481;DHT22;10399;50.754;3.366;2023-03-03T11:11:09;7.10;99.90
20481;DHT22;10399;50.754;3.366;2023-03-03T11:13:55;7.10;99.90
20481;DHT22;10399;50.754;3.366;2023-03-03T11:16:49;7.10;99.90
20481;DHT22;10399;50.754;3.366;2023-03-03T11:25:29;7.50;99.90
20481;DHT22;10399;50.754;3.366;2023-03-03T11:28:30;7.50;99.90
20481;DHT22;10399;50.754;3.366;2023-03-03T11:34:10;7.70;99.90
20481;DHT22;10399;50.754;3.366;2023-03-03T11:39:13;7.60;99.90
20481;DHT22;10399;50.754;3.366;2023-03-03T11:42:19;7.80;99.90
20481;DHT22;10399;50.754;3.366;2023-03-03T11:50:42;8.40;99.90
20481;DHT22;10399;50.754;3.366;2023-03-03T11:56:21;8.50;99.90
20481;DHT22;10399;50.754;3.366;2023-03-03T12:01:38;8.60;99.90
20481;DHT22;10399;50.754;3.366;2023-03-03T12:04:25;8.60;99.90
20481;DHT22;10399;50.754;3.366;2023-03-03T12:07:06;8.60;99.90
20481;DHT22;10399;50.754;3.366;2023-03-03T12:37:47;13.00;99.90
20481;DHT22;10399;50.754;3.366;2023-03-03T12:40:30;13.10;99.90
20481;DHT22;10399;50.754;3.366;2023-03-03T12:43:27;12.70;99.90
20481;DHT22;10399;50.754;3.366;2023-03-03T12:46:20;11.90;99.90
20481;DHT22;10399;50.754;3.366;2023-03-03T12:48:54;11.50;99.90
20481;DHT22;10399;50.754;3.366;2023-03-03T12:51:42;11.30;99.90
20481;DHT22;10399;50.754;3.366;2023-03-03T12:56:54;11.50;99.90
20481;DHT22;10399;50.754;3.366;2023-03-03T13:05:26;12.40;99.90
20481;DHT22;10399;50.754;3.366;2023-03-03T13:10:42;13.50;99.90
20481;DHT22;10399;50.754;3.366;2023-03-03T13:13:21;13.80;99.90
20481;DHT22;10399;50.754;3.366;2023-03-03T13:16:04;14.00;99.90
20481;DHT22;10399;50.754;3.366;2023-03-03T13:18:52;14.30;99.90
20481;DHT22;10399;50.754;3.366;2023-03-03T13:24:12;13.60;99.90
20481;DHT22;10399;50.754;3.366;2023-03-03T13:27:03;13.70;99.90
20481;DHT22;10399;50.754;3.366;2023-03-03T13:29:39;13.70;99.90
20481;DHT22;10399;50.754;3.366;2023-03-03T13:32:22;14.00;99.90
20481;DHT22;10399;50.754;3.366;2023-03-03T13:37:43;13.70;99.90
20481;DHT22;10399;50.754;3.366;2023-03-03T13:40:15;13.60;99.90
20481;DHT22;10399;50.754;3.366;2023-03-03T13:42:59;13.30;99.90
20481;DHT22;10399;50.754;3.366;2023-03-03T13:48:27;13.50;99.90
20481;DHT22;10399;50.754;3.366;2023-03-03T13:51:03;13.80;99.90
20481;DHT22;10399;50.754;3.366;2023-03-03T13:54:11;13.90;99.90
20481;DHT22;10399;50.754;3.366;2023-03-03T13:59:55;13.90;99.90
20481;DHT22;10399;50.754;3.366;2023-03-03T14:02:46;14.10;99.90
20481;DHT22;10399;50.754;3.366;2023-03-03T14:07:59;14.00;99.90
20481;DHT22;10399;50.754;3.366;2023-03-03T14:10:33;14.00;99.90
20481;DHT22;10399;50.754;3.366;2023-03-03T14:13:08;14.10;99.90
20481;DHT22;10399;50.754;3.366;2023-03-03T14:16:14;14.20;99.90
20481;DHT22;10399;50.754;3.366;2023-03-03T14:18:56;14.40;99.90
20481;DHT22;10399;50.754;3.366;2023-03-03T14:21:49;14.80;99.90
20481;DHT22;10399;50.754;3.366;2023-03-03T14:24:21;14.90;99.90
20481;DHT22;10399;50.754;3.366;2023-03-03T14:26:56;14.80;99.90
20481;DHT22;10399;50.754;3.366;2023-03-03T14:32:01;14.20;99.90
20481;DHT22;10399;50.754;3.366;2023-03-03T14:34:58;14.10;99.90
20481;DHT22;10399;50.754;3.366;2023-03-03T14:37:42;14.00;99.90
20481;DHT22;10399;50.754;3.366;2023-03-03T14:40:19;14.20;99.90
20481;DHT22;10399;50.754;3.366;2023-03-03T14:45:39;14.30;99.90
20481;DHT22;10399;50.754;3.366;2023-03-03T14:48:16;14.60;99.90
20481;DHT22;10399;50.754;3.366;2023-03-03T14:53:44;14.60;99.90
20481;DHT22;10399;50.754;3.366;2023-03-03T14:56:27;14.20;99.90
20481;DHT22;10399;50.754;3.366;2023-03-03T14:59:19;13.70;99.90
20481;DHT22;10399;50.754;3.366;2023-03-03T15:01:47;13.40;99.90
20481;DHT22;10399;50.754;3.366;2023-03-03T15:04:25;13.40;99.90
20481;DHT22;10399;50.754;3.366;2023-03-03T15:06:53;13.50;99.90
20481;DHT22;10399;50.754;3.366;2023-03-03T15:11:56;13.50;99.90
20481;DHT22;10399;50.754;3.366;2023-03-03T15:14:45;13.60;99.90
20481;DHT22;10399;50.754;3.366;2023-03-03T15:17:23;13.60;99.90
20481;DHT22;10399;50.754;3.366;2023-03-03T15:31:21;12.70;99.90
20481;DHT22;10399;50.754;3.366;2023-03-03T15:36:52;12.30;99.90
20481;DHT22;10399;50.754;3.366;2023-03-03T15:42:14;12.00;99.90
20481;DHT22;10399;50.754;3.366;2023-03-03T15:53:04;11.40;99.90
20481;DHT22;10399;50.754;3.366;2023-03-03T16:02:09;11.30;99.90
20481;DHT22;10399;50.754;3.366;2023-03-03T16:04:50;11.40;99.90
20481;DHT22;10399;50.754;3.366;2023-03-03T16:07:49;11.30;99.90
20481;DHT22;10399;50.754;3.366;2023-03-03T16:10:42;11.50;99.90
20481;DHT22;10399;50.754;3.366;2023-03-03T16:13:31;11.30;99.90
20481;DHT22;10399;50.754;3.366;2023-03-03T16:16:19;11.20;99.90
20481;DHT22;10399;50.754;3.366;2023-03-03T16:19:17;11.30;99.90
20481;DHT22;10399;50.754;3.366;2023-03-03T16:22:06;11.20;99.90
20481;DHT22;10399;50.754;3.366;2023-03-03T16:27:20;10.60;99.90
20481;DHT22;10399;50.754;3.366;2023-03-03T16:37:50;10.70;99.90
20481;DHT22;10399;50.754;3.366;2023-03-03T16:40:23;10.70;99.90
20481;DHT22;10399;50.754;3.366;2023-03-03T16:45:35;10.50;99.90
20481;DHT22;10399;50.754;3.366;2023-03-03T16:48:20;10.30;99.90
20481;DHT22;10399;50.754;3.366;2023-03-03T16:56:15;10.30;99.90
20481;DHT22;10399;50.754;3.366;2023-03-03T17:02:07;10.10;99.90
20481;DHT22;10399;50.754;3.366;2023-03-03T17:15:51;9.70;99.90
20481;DHT22;10399;50.754;3.366;2023-03-03T17:26:50;9.60;99.90
20481;DHT22;10399;50.754;3.366;2023-03-03T17:38:03;9.40;99.90
20481;DHT22;10399;50.754;3.366;2023-03-03T17:43:24;9.30;99.90
20481;DHT22;10399;50.754;3.366;2023-03-03T17:45:55;9.30;99.90
20481;DHT22;10399;50.754;3.366;2023-03-03T17:52:14;9.10;99.90
20481;DHT22;10399;50.754;3.366;2023-03-03T18:06:19;9.40;99.90
20481;DHT22;10399;50.754;3.366;2023-03-03T18:12:02;9.40;99.90
20481;DHT22;10399;50.754;3.366;2023-03-03T18:22:52;9.40;99.90
20481;DHT22;10399;50.754;3.366;2023-03-03T18:25:25;9.60;99.90
20481;DHT22;10399;50.754;3.366;2023-03-03T18:30:28;9.80;99.90
20481;DHT22;10399;50.754;3.366;2023-03-03T18:33:12;9.70;99.90
20481;DHT22;10399;50.754;3.366;2023-03-03T18:35:42;9.60;99.90
20481;DHT22;10399;50.754;3.366;2023-03-03T18:48:49;9.50;99.90
20481;DHT22;10399;50.754;3.366;2023-03-03T18:59:48;9.40;99.90
20481;DHT22;10399;50.754;3.366;2023-03-03T19:16:03;9.40;99.90
20481;DHT22;10399;50.754;3.366;2023-03-03T19:21:34;9.20;99.90
20481;DHT22;10399;50.754;3.366;2023-03-03T19:40:36;9.30;99.90
20481;DHT22;10399;50.754;3.366;2023-03-03T19:51:16;9.40;99.90
20481;DHT22;10399;50.754;3.366;2023-03-03T19:54:16;9.40;99.90
20481;DHT22;10399;50.754;3.366;2023-03-03T19:56:53;9.20;99.90
20481;DHT22;10399;50.754;3.366;2023-03-03T19:59:41;9.30;99.90
20481;DHT22;10399;50.754;3.366;2023-03-03T20:09:03;9.40;99.90
20481;DHT22;10399;50.754;3.366;2023-03-03T20:11:42;9.20;99.90
20481;DHT22;10399;50.754;3.366;2023-03-03T20:20:23;9.00;99.90
20481;DHT22;10399;50.754;3.366;2023-03-03T20:23:02;9.00;99.90
20481;DHT22;10399;50.754;3.366;2023-03-03T20:25:52;9.10;99.90
20481;DHT22;10399;50.754;3.366;2023-03-03T20:31:31;9.00;99.90
20481;DHT22;10399;50.754;3.366;2023-03-03T20:36:50;8.90;99.90
20481;DHT22;10399;50.754;3.366;2023-03-03T20:42:20;8.90;99.90
20481;DHT22;10399;50.754;3.366;2023-03-03T20:47:36;8.80;99.90
20481;DHT22;10399;50.754;3.366;2023-03-03T20:56:04;8.50;99.90
20481;DHT22;10399;50.754;3.366;2023-03-03T20:59:07;8.50;99.90
20481;DHT22;10399;50.754;3.366;2023-03-03T21:04:31;8.50;99.90
20481;DHT22;10399;50.754;3.366;2023-03-03T21:07:01;8.40;99.90
20481;DHT22;10399;50.754;3.366;2023-03-03T21:09:34;8.50;99.90
20481;DHT22;10399;50.754;3.366;2023-03-03T21:12:26;8.50;99.90
20481;DHT22;10399;50.754;3.366;2023-03-03T21:15:03;8.60;99.90
20481;DHT22;10399;50.754;3.366;2023-03-03T21:17:34;8.60;99.90
20481;DHT22;10399;50.754;3.366;2023-03-03T21:20:30;8.50;99.90
20481;DHT22;10399;50.754;3.366;2023-03-03T21:22:59;8.80;99.90
20481;DHT22;10399;50.754;3.366;2023-03-03T21:31:00;8.40;99.90
20481;DHT22;10399;50.754;3.366;2023-03-03T21:33:56;8.40;99.90
20481;DHT22;10399;50.754;3.366;2023-03-03T21:36:44;8.30;99.90
20481;DHT22;10399;50.754;3.366;2023-03-03T21:41:56;8.40;99.90
20481;DHT22;10399;50.754;3.366;2023-03-03T21:44:36;8.50;99.90
20481;DHT22;10399;50.754;3.366;2023-03-03T21:47:08;8.50;99.90
20481;DHT22;10399;50.754;3.366;2023-03-03T21:49:45;8.50;99.90
20481;DHT22;10399;50.754;3.366;2023-03-03T21:52:15;8.40;99.90
20481;DHT22;10399;50.754;3.366;2023-03-03T21:54:43;8.30;99.90
20481;DHT22;10399;50.754;3.366;2023-03-03T21:57:11;8.30;99.90
20481;DHT22;10399;50.754;3.366;2023-03-03T21:59:39;8.20;99.90
20481;DHT22;10399;50.754;3.366;2023-03-03T22:02:06;8.30;99.90
20481;DHT22;10399;50.754;3.366;2023-03-03T22:04:34;8.20;99.90
20481;DHT22;10399;50.754;3.366;2023-03-03T22:07:05;8.40;99.90
20481;DHT22;10399;50.754;3.366;2023-03-03T22:09:33;8.10;99.90
20481;DHT22;10399;50.754;3.366;2023-03-03T22:12:01;8.20;99.90
20481;DHT22;10399;50.754;3.366;2023-03-03T22:14:29;8.20;99.90
20481;DHT22;10399;50.754;3.366;2023-03-03T22:16:59;8.30;99.90
20481;DHT22;10399;50.754;3.366;2023-03-03T22:19:30;8.30;99.90
20481;DHT22;10399;50.754;3.366;2023-03-03T22:21:56;8.30;99.90
20481;DHT22;10399;50.754;3.366;2023-03-03T22:24:24;8.20;99.90
20481;DHT22;10399;50.754;3.366;2023-03-03T22:26:51;8.20;99.90
20481;DHT22;10399;50.754;3.366;2023-03-03T22:29:19;8.30;99.90
20481;DHT22;10399;50.754;3.366;2023-03-03T22:31:51;8.30;99.90
20481;DHT22;10399;50.754;3.366;2023-03-03T22:34:18;8.20;99.90
20481;DHT22;10399;50.754;3.366;2023-03-03T22:36:46;8.10;99.90
20481;DHT22;10399;50.754;3.366;2023-03-03T22:39:12;8.20;99.90
20481;DHT22;10399;50.754;3.366;2023-03-03T22:41:39;8.20;99.90
20481;DHT22;10399;50.754;3.366;2023-03-03T22:44:06;8.40;99.90
20481;DHT22;10399;50.754;3.366;2023-03-03T22:46:34;8.30;99.90